sensor_id;sensor_type;location;lat;lon;timestamp;pressure;altitude;pressure_sealevel;temperature;humidity
44148;BME280;29810;55.848;37.368;2023-02-15T00:01:09;99417.09;;;-3.07;84.61
44148;BME280;29810;55.848;37.368;2023-02-15T00:04:16;99391.63;;;-3.06;84.50
44148;BME280;29810;55.848;37.368;2023-02-15T00:07:18;99413.81;;;-3.03;84.69
44148;BME280;29810;55.848;37.368;2023-02-15T00:10:20;99416.25;;;-3.08;84.37
44148;BME280;29810;55.848;37.368;2023-02-15T00:13:21;99425.53;;;-3.10;84.06
44148;BME280;29810;55.848;37.368;2023-02-15T00:16:23;99419.63;;;-3.07;84.25
44148;BME280;29810;55.848;37.368;2023-02-15T00:19:25;99435.09;;;-3.01;83.88
44148;BME280;29810;55.848;37.368;2023-02-15T00:22:26;99423.91;;;-3.06;83.92
44148;BME280;29810;55.848;37.368;2023-02-15T00:25:28;99438.38;;;-3.07;83.90
44148;BME280;29810;55.848;37.368;2023-02-15T00:28:30;99390.50;;;-3.19;84.45
44148;BME280;29810;55.848;37.368;2023-02-15T00:31:34;99419.56;;;-3.12;84.28
44148;BME280;29810;55.848;37.368;2023-02-15T00:34:37;99415.91;;;-3.23;84.61
44148;BME280;29810;55.848;37.368;2023-02-15T00:37:38;99440.75;;;-3.14;85.12
44148;BME280;29810;55.848;37.368;2023-02-15T00:40:40;99413.38;;;-3.22;85.27
44148;BME280;29810;55.848;37.368;2023-02-15T00:43:41;99420.16;;;-3.24;84.68
44148;BME280;29810;55.848;37.368;2023-02-15T00:46:43;99438.09;;;-3.19;85.22
44148;BME280;29810;55.848;37.368;2023-02-15T00:49:44;99448.19;;;-3.25;84.75
44148;BME280;29810;55.848;37.368;2023-02-15T00:52:46;99430.44;;;-3.19;84.67
44148;BME280;29810;55.848;37.368;2023-02-15T00:55:48;99434.53;;;-3.27;84.85
44148;BME280;29810;55.848;37.368;2023-02-15T00:58:51;99453.28;;;-3.25;84.89
44148;BME280;29810;55.848;37.368;2023-02-15T01:01:52;99450.81;;;-3.21;84.54
44148;BME280;29810;55.848;37.368;2023-02-15T01:04:54;99456.72;;;-3.23;84.35
44148;BME280;29810;55.848;37.368;2023-02-15T01:07:57;99447.38;;;-3.23;84.54
44148;BME280;29810;55.848;37.368;2023-02-15T01:11:05;99440.66;;;-3.18;83.74
44148;BME280;29810;55.848;37.368;2023-02-15T01:14:06;99450.16;;;-3.12;83.39
44148;BME280;29810;55.848;37.368;2023-02-15T01:17:08;99433.69;;;-3.26;82.94
44148;BME280;29810;55.848;37.368;2023-02-15T01:20:10;99449.97;;;-3.21;82.68
44148;BME280;29810;55.848;37.368;2023-02-15T01:23:12;99444.97;;;-3.15;82.38
44148;BME280;29810;55.848;37.368;2023-02-15T01:26:14;99437.97;;;-3.25;82.14
44148;BME280;29810;55.848;37.368;2023-02-15T01:29:18;99462.91;;;-3.13;82.16
44148;BME280;29810;55.848;37.368;2023-02-15T01:32:19;99442.34;;;-3.20;81.43
44148;BME280;29810;55.848;37.368;2023-02-15T01:35:21;99431.91;;;-3.30;81.11
44148;BME280;29810;55.848;37.368;2023-02-15T01:38:23;99451.59;;;-3.23;80.72
44148;BME280;29810;55.848;37.368;2023-02-15T01:41:25;99449.88;;;-3.24;80.27
44148;BME280;29810;55.848;37.368;2023-02-15T01:44:48;99445.84;;;-3.16;79.37
44148;BME280;29810;55.848;37.368;2023-02-15T01:48:04;99451.00;;;-3.13;79.04
44148;BME280;29810;55.848;37.368;2023-02-15T01:51:06;99448.44;;;-3.13;79.11
44148;BME280;29810;55.848;37.368;2023-02-15T01:54:27;99460.22;;;-3.18;78.64
44148;BME280;29810;55.848;37.368;2023-02-15T01:57:31;99455.88;;;-3.24;78.74
44148;BME280;29810;55.848;37.368;2023-02-15T02:00:34;99456.75;;;-3.20;78.63
44148;BME280;29810;55.848;37.368;2023-02-15T02:06:50;99470.00;;;-3.37;78.02
44148;BME280;29810;55.848;37.368;2023-02-15T02:09:53;99459.87;;;-3.34;78.33
44148;BME280;29810;55.848;37.368;2023-02-15T02:13:01;99452.22;;;-3.34;77.86
44148;BME280;29810;55.848;37.368;2023-02-15T02:26:20;99465.78;;;-3.35;77.54
44148;BME280;29810;55.848;37.368;2023-02-15T02:43:05;99479.12;;;-3.46;77.07
44148;BME280;29810;55.848;37.368;2023-02-15T02:46:17;99491.84;;;-3.48;77.15
44148;BME280;29810;55.848;37.368;2023-02-15T02:49:36;99488.69;;;-3.38;77.03
44148;BME280;29810;55.848;37.368;2023-02-15T02:52:50;99480.16;;;-3.40;76.69
44148;BME280;29810;55.848;37.368;2023-02-15T02:55:53;99501.19;;;-3.48;76.24
44148;BME280;29810;55.848;37.368;2023-02-15T02:59:06;99500.41;;;-3.46;76.08
44148;BME280;29810;55.848;37.368;2023-02-15T03:02:25;99503.56;;;-3.55;76.72
44148;BME280;29810;55.848;37.368;2023-02-15T03:05:30;99500.75;;;-3.67;76.97
44148;BME280;29810;55.848;37.368;2023-02-15T03:08:36;99502.25;;;-3.74;76.52
44148;BME280;29810;55.848;37.368;2023-02-15T03:11:41;99496.44;;;-3.70;77.24
44148;BME280;29810;55.848;37.368;2023-02-15T03:14:45;99528.78;;;-3.67;77.14
44148;BME280;29810;55.848;37.368;2023-02-15T03:17:55;99510.75;;;-3.75;77.76
44148;BME280;29810;55.848;37.368;2023-02-15T03:21:01;99510.56;;;-3.81;80.59
44148;BME280;29810;55.848;37.368;2023-02-15T03:24:21;99526.78;;;-3.79;79.31
44148;BME280;29810;55.848;37.368;2023-02-15T03:27:39;99518.38;;;-3.75;78.39
44148;BME280;29810;55.848;37.368;2023-02-15T03:30:45;99526.06;;;-3.73;76.87
44148;BME280;29810;55.848;37.368;2023-02-15T03:33:54;99513.19;;;-3.78;76.46
44148;BME280;29810;55.848;37.368;2023-02-15T03:37:50;99524.12;;;-3.82;74.96
44148;BME280;29810;55.848;37.368;2023-02-15T03:40:34;99518.97;;;-3.85;75.39
44148;BME280;29810;55.848;37.368;2023-02-15T03:44:00;99516.31;;;-3.88;74.50
44148;BME280;29810;55.848;37.368;2023-02-15T03:47:16;99505.28;;;-3.89;74.17
44148;BME280;29810;55.848;37.368;2023-02-15T03:50:24;99528.25;;;-3.87;73.53
44148;BME280;29810;55.848;37.368;2023-02-15T03:53:47;99513.63;;;-3.94;73.03
44148;BME280;29810;55.848;37.368;2023-02-15T03:56:50;99522.97;;;-3.93;73.32
44148;BME280;29810;55.848;37.368;2023-02-15T04:03:42;99529.72;;;-3.95;72.96
44148;BME280;29810;55.848;37.368;2023-02-15T04:06:46;99525.47;;;-3.95;72.54
44148;BME280;29810;55.848;37.368;2023-02-15T04:09:48;99516.00;;;-4.01;72.47
44148;BME280;29810;55.848;37.368;2023-02-15T04:13:08;99530.47;;;-4.00;71.96
44148;BME280;29810;55.848;37.368;2023-02-15T04:16:10;99516.75;;;-4.05;72.08
44148;BME280;29810;55.848;37.368;2023-02-15T04:19:11;99536.37;;;-4.01;71.94
44148;BME280;29810;55.848;37.368;2023-02-15T04:22:31;99514.78;;;-4.15;72.07
44148;BME280;29810;55.848;37.368;2023-02-15T04:25:53;99536.41;;;-3.99;72.16
44148;BME280;29810;55.848;37.368;2023-02-15T04:28:55;99533.88;;;-3.99;71.47
44148;BME280;29810;55.848;37.368;2023-02-15T04:31:59;99511.53;;;-4.09;71.78
44148;BME280;29810;55.848;37.368;2023-02-15T04:35:02;99541.31;;;-4.07;71.63
44148;BME280;29810;55.848;37.368;2023-02-15T04:38:04;99530.22;;;-4.09;72.01
44148;BME280;29810;55.848;37.368;2023-02-15T04:41:06;99520.19;;;-4.03;71.89
44148;BME280;29810;55.848;37.368;2023-02-15T04:44:08;99536.19;;;-4.08;71.75
44148;BME280;29810;55.848;37.368;2023-02-15T04:47:10;99525.59;;;-4.22;71.98
44148;BME280;29810;55.848;37.368;2023-02-15T04:50:11;99517.03;;;-4.26;72.03
44148;BME280;29810;55.848;37.368;2023-02-15T04:53:13;99514.75;;;-4.17;72.26
44148;BME280;29810;55.848;37.368;2023-02-15T04:56:14;99529.00;;;-4.23;72.47
44148;BME280;29810;55.848;37.368;2023-02-15T04:59:16;99515.28;;;-4.28;72.39
44148;BME280;29810;55.848;37.368;2023-02-15T05:02:18;99498.78;;;-4.41;72.39
44148;BME280;29810;55.848;37.368;2023-02-15T05:05:19;99525.09;;;-4.41;72.90
44148;BME280;29810;55.848;37.368;2023-02-15T05:08:21;99541.06;;;-4.46;73.54
44148;BME280;29810;55.848;37.368;2023-02-15T05:11:22;99526.59;;;-4.47;73.90
44148;BME280;29810;55.848;37.368;2023-02-15T05:14:25;99518.94;;;-4.49;73.74
44148;BME280;29810;55.848;37.368;2023-02-15T05:17:27;99535.75;;;-4.54;74.42
44148;BME280;29810;55.848;37.368;2023-02-15T05:20:29;99546.63;;;-4.60;74.95
44148;BME280;29810;55.848;37.368;2023-02-15T05:23:30;99533.22;;;-4.54;75.04
44148;BME280;29810;55.848;37.368;2023-02-15T05:26:32;99546.88;;;-4.51;74.40
44148;BME280;29810;55.848;37.368;2023-02-15T05:29:52;99548.75;;;-4.45;74.06
44148;BME280;29810;55.848;37.368;2023-02-15T05:32:54;99546.03;;;-4.50;73.89
44148;BME280;29810;55.848;37.368;2023-02-15T05:35:55;99545.19;;;-4.50;74.10
44148;BME280;29810;55.848;37.368;2023-02-15T05:38:57;99542.09;;;-4.40;73.84
44148;BME280;29810;55.848;37.368;2023-02-15T05:42:00;99551.44;;;-4.40;73.68
44148;BME280;29810;55.848;37.368;2023-02-15T05:45:01;99570.03;;;-4.43;73.87
44148;BME280;29810;55.848;37.368;2023-02-15T05:48:05;99571.03;;;-4.38;73.82
44148;BME280;29810;55.848;37.368;2023-02-15T05:51:11;99545.69;;;-4.62;74.15
44148;BME280;29810;55.848;37.368;2023-02-15T05:54:15;99547.00;;;-4.46;74.41
44148;BME280;29810;55.848;37.368;2023-02-15T05:57:16;99573.06;;;-4.55;74.96
44148;BME280;29810;55.848;37.368;2023-02-15T06:00:18;99572.34;;;-4.51;74.75
44148;BME280;29810;55.848;37.368;2023-02-15T06:03:20;99576.03;;;-4.39;74.30
44148;BME280;29810;55.848;37.368;2023-02-15T06:06:21;99577.16;;;-4.31;73.94
44148;BME280;29810;55.848;37.368;2023-02-15T06:09:23;99571.84;;;-4.39;73.59
44148;BME280;29810;55.848;37.368;2023-02-15T06:12:25;99560.38;;;-4.24;73.29
44148;BME280;29810;55.848;37.368;2023-02-15T06:15:26;99558.47;;;-4.30;73.38
44148;BME280;29810;55.848;37.368;2023-02-15T06:18:28;99595.72;;;-4.35;72.77
44148;BME280;29810;55.848;37.368;2023-02-15T06:21:30;99576.97;;;-4.37;73.62
44148;BME280;29810;55.848;37.368;2023-02-15T06:24:32;99566.03;;;-4.33;73.53
44148;BME280;29810;55.848;37.368;2023-02-15T06:27:33;99593.66;;;-4.18;72.81
44148;BME280;29810;55.848;37.368;2023-02-15T06:30:35;99574.97;;;-4.17;72.88
44148;BME280;29810;55.848;37.368;2023-02-15T06:33:37;99580.03;;;-4.19;72.06
44148;BME280;29810;55.848;37.368;2023-02-15T06:36:39;99590.44;;;-4.11;72.68
44148;BME280;29810;55.848;37.368;2023-02-15T06:39:40;99597.16;;;-4.13;72.15
44148;BME280;29810;55.848;37.368;2023-02-15T06:42:43;99585.03;;;-3.91;73.73
44148;BME280;29810;55.848;37.368;2023-02-15T06:45:45;99598.81;;;-3.85;71.59
44148;BME280;29810;55.848;37.368;2023-02-15T06:48:46;99592.81;;;-3.87;70.67
44148;BME280;29810;55.848;37.368;2023-02-15T06:51:48;99586.38;;;-4.04;71.41
44148;BME280;29810;55.848;37.368;2023-02-15T06:54:50;99587.34;;;-4.01;71.62
44148;BME280;29810;55.848;37.368;2023-02-15T06:57:52;99599.25;;;-4.00;73.55
44148;BME280;29810;55.848;37.368;2023-02-15T07:00:53;99600.50;;;-4.16;72.50
44148;BME280;29810;55.848;37.368;2023-02-15T07:03:55;99602.47;;;-4.05;72.43
44148;BME280;29810;55.848;37.368;2023-02-15T07:06:56;99603.22;;;-4.09;72.29
44148;BME280;29810;55.848;37.368;2023-02-15T07:09:58;99593.34;;;-3.98;71.96
44148;BME280;29810;55.848;37.368;2023-02-15T07:12:59;99603.69;;;-3.92;71.73
44148;BME280;29810;55.848;37.368;2023-02-15T07:16:01;99608.16;;;-3.85;71.37
44148;BME280;29810;55.848;37.368;2023-02-15T07:19:02;99596.25;;;-3.85;71.45
44148;BME280;29810;55.848;37.368;2023-02-15T07:22:04;99610.69;;;-3.85;72.11
44148;BME280;29810;55.848;37.368;2023-02-15T07:25:08;99596.66;;;-3.69;71.22
44148;BME280;29810;55.848;37.368;2023-02-15T07:28:10;99592.75;;;-3.88;70.75
44148;BME280;29810;55.848;37.368;2023-02-15T07:31:11;99607.97;;;-3.91;70.90
44148;BME280;29810;55.848;37.368;2023-02-15T07:34:13;99617.09;;;-3.68;70.99
44148;BME280;29810;55.848;37.368;2023-02-15T07:37:15;99605.16;;;-3.69;70.09
44148;BME280;29810;55.848;37.368;2023-02-15T07:40:17;99608.25;;;-3.48;70.04
44148;BME280;29810;55.848;37.368;2023-02-15T07:43:18;99601.84;;;-3.66;70.35
44148;BME280;29810;55.848;37.368;2023-02-15T07:46:20;99604.78;;;-3.84;71.25
44148;BME280;29810;55.848;37.368;2023-02-15T07:49:22;99601.81;;;-3.68;71.24
44148;BME280;29810;55.848;37.368;2023-02-15T07:52:25;99622.69;;;-3.49;70.80
44148;BME280;29810;55.848;37.368;2023-02-15T07:55:27;99622.63;;;-3.51;70.85
44148;BME280;29810;55.848;37.368;2023-02-15T07:58:28;99625.00;;;-3.58;70.39
44148;BME280;29810;55.848;37.368;2023-02-15T08:01:48;99618.22;;;-3.58;69.98
44148;BME280;29810;55.848;37.368;2023-02-15T08:04:50;99631.31;;;-3.44;70.33
44148;BME280;29810;55.848;37.368;2023-02-15T08:07:52;99642.63;;;-3.34;69.60
44148;BME280;29810;55.848;37.368;2023-02-15T08:10:53;99622.84;;;-3.43;69.65
44148;BME280;29810;55.848;37.368;2023-02-15T08:14:21;99621.91;;;-3.46;69.01
44148;BME280;29810;55.848;37.368;2023-02-15T08:17:25;99631.75;;;-3.27;69.77
44148;BME280;29810;55.848;37.368;2023-02-15T08:20:27;99642.97;;;-3.20;69.10
44148;BME280;29810;55.848;37.368;2023-02-15T08:23:29;99639.31;;;-3.31;69.09
44148;BME280;29810;55.848;37.368;2023-02-15T08:26:32;99660.38;;;-3.37;69.18
44148;BME280;29810;55.848;37.368;2023-02-15T08:29:36;99644.22;;;-3.38;69.64
44148;BME280;29810;55.848;37.368;2023-02-15T08:32:38;99655.91;;;-3.46;69.74
44148;BME280;29810;55.848;37.368;2023-02-15T08:35:40;99639.88;;;-3.42;69.81
44148;BME280;29810;55.848;37.368;2023-02-15T08:38:42;99648.28;;;-3.46;68.78
44148;BME280;29810;55.848;37.368;2023-02-15T08:41:46;99633.81;;;-3.45;69.19
44148;BME280;29810;55.848;37.368;2023-02-15T08:44:48;99639.62;;;-3.51;69.64
44148;BME280;29810;55.848;37.368;2023-02-15T08:47:52;99656.25;;;-3.32;69.65
44148;BME280;29810;55.848;37.368;2023-02-15T08:50:53;99626.09;;;-3.48;69.29
44148;BME280;29810;55.848;37.368;2023-02-15T08:54:01;99658.00;;;-3.31;69.82
44148;BME280;29810;55.848;37.368;2023-02-15T08:57:02;99644.41;;;-3.31;70.01
44148;BME280;29810;55.848;37.368;2023-02-15T09:00:05;99679.19;;;-3.34;68.93
44148;BME280;29810;55.848;37.368;2023-02-15T09:03:07;99648.50;;;-3.37;69.52
44148;BME280;29810;55.848;37.368;2023-02-15T09:06:08;99672.31;;;-3.36;69.86
44148;BME280;29810;55.848;37.368;2023-02-15T09:09:10;99655.47;;;-3.29;69.56
44148;BME280;29810;55.848;37.368;2023-02-15T09:12:12;99665.56;;;-3.36;69.17
44148;BME280;29810;55.848;37.368;2023-02-15T09:15:14;99657.34;;;-3.56;70.65
44148;BME280;29810;55.848;37.368;2023-02-15T09:18:17;99671.28;;;-3.43;71.07
44148;BME280;29810;55.848;37.368;2023-02-15T09:21:20;99651.53;;;-3.18;70.66
44148;BME280;29810;55.848;37.368;2023-02-15T09:24:23;99656.03;;;-3.08;70.39
44148;BME280;29810;55.848;37.368;2023-02-15T09:27:24;99666.19;;;-3.11;69.50
44148;BME280;29810;55.848;37.368;2023-02-15T09:30:26;99639.94;;;-3.39;69.92
44148;BME280;29810;55.848;37.368;2023-02-15T09:33:27;99650.78;;;-3.14;69.27
44148;BME280;29810;55.848;37.368;2023-02-15T09:36:32;99677.09;;;-3.15;69.20
44148;BME280;29810;55.848;37.368;2023-02-15T09:39:37;99678.22;;;-3.37;68.74
44148;BME280;29810;55.848;37.368;2023-02-15T09:43:09;99669.31;;;-3.21;69.18
44148;BME280;29810;55.848;37.368;2023-02-15T09:50:03;99688.69;;;-2.94;67.86
44148;BME280;29810;55.848;37.368;2023-02-15T09:56:34;99697.25;;;-2.92;68.17
44148;BME280;29810;55.848;37.368;2023-02-15T10:15:50;99687.72;;;-3.63;73.33
44148;BME280;29810;55.848;37.368;2023-02-15T10:19:07;99695.03;;;-3.45;73.45
44148;BME280;29810;55.848;37.368;2023-02-15T10:25:40;99692.72;;;-3.36;72.91
44148;BME280;29810;55.848;37.368;2023-02-15T10:28:57;99697.00;;;-3.35;73.48
44148;BME280;29810;55.848;37.368;2023-02-15T10:35:20;99697.44;;;-3.18;73.69
44148;BME280;29810;55.848;37.368;2023-02-15T11:02:42;99728.44;;;-3.35;74.43
44148;BME280;29810;55.848;37.368;2023-02-15T11:05:39;99746.41;;;-3.31;74.01
44148;BME280;29810;55.848;37.368;2023-02-15T11:08:49;99746.59;;;-3.25;73.91
44148;BME280;29810;55.848;37.368;2023-02-15T11:11:53;99754.38;;;-3.19;74.00
44148;BME280;29810;55.848;37.368;2023-02-15T11:19:32;99742.44;;;-3.20;74.41
44148;BME280;29810;55.848;37.368;2023-02-15T11:22:13;99742.91;;;-3.35;74.31
44148;BME280;29810;55.848;37.368;2023-02-15T11:25:24;99743.50;;;-3.44;74.04
44148;BME280;29810;55.848;37.368;2023-02-15T11:28:49;99743.94;;;-3.28;74.19
44148;BME280;29810;55.848;37.368;2023-02-15T11:32:11;99737.75;;;-3.37;74.17
44148;BME280;29810;55.848;37.368;2023-02-15T11:38:31;99768.47;;;-3.32;75.40
44148;BME280;29810;55.848;37.368;2023-02-15T11:41:37;99768.66;;;-3.56;77.80
44148;BME280;29810;55.848;37.368;2023-02-15T11:45:01;99784.03;;;-3.82;78.95
44148;BME280;29810;55.848;37.368;2023-02-15T11:48:11;99781.88;;;-3.70;79.73
44148;BME280;29810;55.848;37.368;2023-02-15T11:51:18;99789.53;;;-3.70;78.89
44148;BME280;29810;55.848;37.368;2023-02-15T11:54:26;99786.59;;;-3.82;79.75
44148;BME280;29810;55.848;37.368;2023-02-15T11:57:33;99780.03;;;-3.74;79.54
44148;BME280;29810;55.848;37.368;2023-02-15T12:00:42;99781.19;;;-3.64;78.54
44148;BME280;29810;55.848;37.368;2023-02-15T12:03:52;99777.03;;;-3.60;78.06
44148;BME280;29810;55.848;37.368;2023-02-15T12:07:27;99777.03;;;-3.60;77.15
44148;BME280;29810;55.848;37.368;2023-02-15T12:10:41;99791.03;;;-3.47;76.87
44148;BME280;29810;55.848;37.368;2023-02-15T12:14:05;99780.94;;;-3.43;75.55
44148;BME280;29810;55.848;37.368;2023-02-15T12:17:12;99783.00;;;-3.29;75.33
44148;BME280;29810;55.848;37.368;2023-02-15T12:23:17;99786.47;;;-3.27;74.58
44148;BME280;29810;55.848;37.368;2023-02-15T12:26:28;99795.81;;;-3.28;74.95
44148;BME280;29810;55.848;37.368;2023-02-15T12:29:41;99801.78;;;-3.27;75.18
44148;BME280;29810;55.848;37.368;2023-02-15T12:33:25;99799.25;;;-3.56;78.29
44148;BME280;29810;55.848;37.368;2023-02-15T12:36:49;99816.50;;;-3.47;78.40
44148;BME280;29810;55.848;37.368;2023-02-15T12:39:59;99811.97;;;-3.58;78.15
44148;BME280;29810;55.848;37.368;2023-02-15T12:43:02;99815.88;;;-3.69;78.21
44148;BME280;29810;55.848;37.368;2023-02-15T12:46:23;99828.66;;;-3.68;78.03
44148;BME280;29810;55.848;37.368;2023-02-15T12:49:26;99816.81;;;-3.66;78.26
44148;BME280;29810;55.848;37.368;2023-02-15T12:52:28;99823.88;;;-3.57;77.41
44148;BME280;29810;55.848;37.368;2023-02-15T12:55:30;99832.16;;;-3.64;76.71
44148;BME280;29810;55.848;37.368;2023-02-15T12:58:40;99832.59;;;-3.50;76.69
44148;BME280;29810;55.848;37.368;2023-02-15T13:01:42;99831.50;;;-3.57;76.91
44148;BME280;29810;55.848;37.368;2023-02-15T13:04:48;99847.31;;;-3.69;77.16
44148;BME280;29810;55.848;37.368;2023-02-15T13:07:56;99835.56;;;-3.63;77.28
44148;BME280;29810;55.848;37.368;2023-02-15T13:11:11;99841.03;;;-3.51;77.14
44148;BME280;29810;55.848;37.368;2023-02-15T13:14:19;99830.19;;;-3.44;76.76
44148;BME280;29810;55.848;37.368;2023-02-15T13:17:26;99850.81;;;-3.36;75.71
44148;BME280;29810;55.848;37.368;2023-02-15T13:20:32;99865.47;;;-3.30;75.37
44148;BME280;29810;55.848;37.368;2023-02-15T13:23:35;99854.00;;;-3.45;74.93
44148;BME280;29810;55.848;37.368;2023-02-15T13:26:37;99855.25;;;-3.59;74.53
44148;BME280;29810;55.848;37.368;2023-02-15T13:29:39;99855.16;;;-3.62;74.78
44148;BME280;29810;55.848;37.368;2023-02-15T13:32:45;99873.16;;;-3.58;73.92
44148;BME280;29810;55.848;37.368;2023-02-15T13:39:08;99874.06;;;-3.54;74.03
44148;BME280;29810;55.848;37.368;2023-02-15T13:42:39;99872.09;;;-3.64;73.24
44148;BME280;29810;55.848;37.368;2023-02-15T13:46:01;99874.00;;;-3.57;73.21
44148;BME280;29810;55.848;37.368;2023-02-15T13:52:55;99879.00;;;-3.60;73.77
44148;BME280;29810;55.848;37.368;2023-02-15T13:59:32;99881.69;;;-3.56;73.15
44148;BME280;29810;55.848;37.368;2023-02-15T14:19:21;99897.94;;;-3.79;74.15
44148;BME280;29810;55.848;37.368;2023-02-15T14:22:37;99908.13;;;-3.79;74.43
44148;BME280;29810;55.848;37.368;2023-02-15T14:25:46;99904.69;;;-3.81;74.88
44148;BME280;29810;55.848;37.368;2023-02-15T14:29:15;99911.63;;;-3.77;74.68
44148;BME280;29810;55.848;37.368;2023-02-15T14:32:41;99885.63;;;-3.93;74.91
44148;BME280;29810;55.848;37.368;2023-02-15T14:35:43;99909.47;;;-3.91;75.07
44148;BME280;29810;55.848;37.368;2023-02-15T14:39:26;99915.75;;;-3.81;74.70
44148;BME280;29810;55.848;37.368;2023-02-15T14:49:36;99931.75;;;-3.85;75.30
44148;BME280;29810;55.848;37.368;2023-02-15T14:56:21;99931.84;;;-3.82;75.62
44148;BME280;29810;55.848;37.368;2023-02-15T15:02:57;99939.41;;;-3.85;76.08
44148;BME280;29810;55.848;37.368;2023-02-15T15:06:00;99932.56;;;-3.86;75.57
44148;BME280;29810;55.848;37.368;2023-02-15T15:09:18;99933.16;;;-3.93;75.72
44148;BME280;29810;55.848;37.368;2023-02-15T15:24:59;99947.59;;;-3.94;76.58
44148;BME280;29810;55.848;37.368;2023-02-15T15:28:01;99954.38;;;-3.94;76.39
44148;BME280;29810;55.848;37.368;2023-02-15T15:31:16;99949.28;;;-3.94;76.59
44148;BME280;29810;55.848;37.368;2023-02-15T15:37:57;99955.16;;;-3.97;76.37
44148;BME280;29810;55.848;37.368;2023-02-15T15:44:51;99968.38;;;-4.07;76.05
44148;BME280;29810;55.848;37.368;2023-02-15T15:51:14;99966.81;;;-4.04;74.92
44148;BME280;29810;55.848;37.368;2023-02-15T15:54:26;99942.25;;;-4.02;75.09
44148;BME280;29810;55.848;37.368;2023-02-15T15:57:32;99971.37;;;-3.93;74.85
44148;BME280;29810;55.848;37.368;2023-02-15T16:03:49;99977.31;;;-3.94;73.15
44148;BME280;29810;55.848;37.368;2023-02-15T16:06:52;99982.72;;;-3.85;73.20
44148;BME280;29810;55.848;37.368;2023-02-15T16:13:00;99982.19;;;-4.01;71.20
44148;BME280;29810;55.848;37.368;2023-02-15T16:16:03;99970.97;;;-4.06;71.69
44148;BME280;29810;55.848;37.368;2023-02-15T16:19:05;99992.66;;;-3.93;71.31
44148;BME280;29810;55.848;37.368;2023-02-15T16:22:15;100005.84;;;-4.05;71.00
44148;BME280;29810;55.848;37.368;2023-02-15T16:28:36;100040.44;;;-4.11;70.74
44148;BME280;29810;55.848;37.368;2023-02-15T16:31:37;100009.47;;;-4.22;71.03
44148;BME280;29810;55.848;37.368;2023-02-15T16:34:50;99996.91;;;-4.18;70.65
44148;BME280;29810;55.848;37.368;2023-02-15T16:37:52;99999.06;;;-4.04;70.83
44148;BME280;29810;55.848;37.368;2023-02-15T16:40:58;100015.38;;;-3.99;70.52
44148;BME280;29810;55.848;37.368;2023-02-15T16:44:17;100032.03;;;-4.09;69.57
44148;BME280;29810;55.848;37.368;2023-02-15T16:47:24;100038.03;;;-4.07;69.58
44148;BME280;29810;55.848;37.368;2023-02-15T16:50:32;100019.53;;;-4.25;70.43
44148;BME280;29810;55.848;37.368;2023-02-15T16:53:36;100037.84;;;-4.36;71.43
44148;BME280;29810;55.848;37.368;2023-02-15T16:56:38;100012.16;;;-4.42;71.14
44148;BME280;29810;55.848;37.368;2023-02-15T16:59:48;100025.41;;;-4.28;71.00
44148;BME280;29810;55.848;37.368;2023-02-15T17:03:11;100019.53;;;-4.25;71.18
44148;BME280;29810;55.848;37.368;2023-02-15T17:06:23;100022.38;;;-4.18;70.72
44148;BME280;29810;55.848;37.368;2023-02-15T17:09:33;100021.38;;;-4.21;70.67
44148;BME280;29810;55.848;37.368;2023-02-15T17:13:03;100017.06;;;-4.24;70.94
44148;BME280;29810;55.848;37.368;2023-02-15T17:16:25;100010.03;;;-4.31;71.45
44148;BME280;29810;55.848;37.368;2023-02-15T17:19:32;100028.88;;;-4.26;71.48
44148;BME280;29810;55.848;37.368;2023-02-15T17:22:35;100027.56;;;-4.39;72.00
44148;BME280;29810;55.848;37.368;2023-02-15T17:25:41;100031.09;;;-4.35;72.02
44148;BME280;29810;55.848;37.368;2023-02-15T17:32:25;100019.63;;;-4.22;71.86
44148;BME280;29810;55.848;37.368;2023-02-15T17:35:30;100039.88;;;-4.27;71.81
44148;BME280;29810;55.848;37.368;2023-02-15T17:38:41;100036.09;;;-4.37;72.18
44148;BME280;29810;55.848;37.368;2023-02-15T17:42:00;100021.75;;;-4.35;72.46
44148;BME280;29810;55.848;37.368;2023-02-15T17:45:03;100026.38;;;-4.24;72.20
44148;BME280;29810;55.848;37.368;2023-02-15T17:48:05;100033.50;;;-4.16;72.02
44148;BME280;29810;55.848;37.368;2023-02-15T17:51:12;100028.22;;;-4.20;72.19
44148;BME280;29810;55.848;37.368;2023-02-15T17:54:14;100029.97;;;-4.19;72.31
44148;BME280;29810;55.848;37.368;2023-02-15T17:57:36;100032.97;;;-4.29;72.04
44148;BME280;29810;55.848;37.368;2023-02-15T18:00:47;100031.38;;;-4.50;72.85
44148;BME280;29810;55.848;37.368;2023-02-15T18:04:11;100031.66;;;-4.42;73.00
44148;BME280;29810;55.848;37.368;2023-02-15T18:07:32;100037.84;;;-4.36;72.79
44148;BME280;29810;55.848;37.368;2023-02-15T18:10:54;100027.75;;;-4.33;73.03
44148;BME280;29810;55.848;37.368;2023-02-15T18:14:14;100044.91;;;-4.28;72.63
44148;BME280;29810;55.848;37.368;2023-02-15T18:17:17;100028.09;;;-4.47;73.33
44148;BME280;29810;55.848;37.368;2023-02-15T18:20:22;100031.47;;;-4.47;73.33
44148;BME280;29810;55.848;37.368;2023-02-15T18:23:26;100022.47;;;-4.39;73.13
44148;BME280;29810;55.848;37.368;2023-02-15T18:26:27;100019.28;;;-4.33;73.43
44148;BME280;29810;55.848;37.368;2023-02-15T18:29:31;100030.72;;;-4.22;73.07
44148;BME280;29810;55.848;37.368;2023-02-15T18:32:35;100039.81;;;-4.28;72.83
44148;BME280;29810;55.848;37.368;2023-02-15T18:35:44;100025.53;;;-4.47;73.07
44148;BME280;29810;55.848;37.368;2023-02-15T18:38:46;100034.41;;;-4.38;73.09
44148;BME280;29810;55.848;37.368;2023-02-15T18:41:49;100036.00;;;-4.40;72.70
44148;BME280;29810;55.848;37.368;2023-02-15T18:44:57;100032.41;;;-4.45;72.72
44148;BME280;29810;55.848;37.368;2023-02-15T18:48:01;100033.28;;;-4.44;73.52
44148;BME280;29810;55.848;37.368;2023-02-15T18:51:02;100027.28;;;-4.46;75.40
44148;BME280;29810;55.848;37.368;2023-02-15T18:54:14;100034.16;;;-4.44;75.72
44148;BME280;29810;55.848;37.368;2023-02-15T18:57:16;100017.56;;;-4.33;75.58
44148;BME280;29810;55.848;37.368;2023-02-15T19:00:22;100038.72;;;-4.35;76.62
44148;BME280;29810;55.848;37.368;2023-02-15T19:03:28;100043.13;;;-4.54;79.59
44148;BME280;29810;55.848;37.368;2023-02-15T19:06:31;100036.34;;;-4.99;85.31